Data for 02/08/2013

Time Sea-Level Adjusted Pressure Absolute Pressure Temperature Relative Humidity Dew Point   
(mb) (inHg) (mb) (inHg) (C) (F) (%) (C) (F)
00:05 1013 29.91 843 24.89 -1.9 28.7 55 -9.7 14.5
00:10 1013 29.91 843 24.89 -1.5 29.3 52 -10.2 13.6
00:15 1013 29.91 843 24.89 -1.3 29.6 52 -10 14
00:20 1013 29.91 843 24.89 -1.5 29.3 53 -10 14.1
00:25 1013 29.91 843 24.89 -1.4 29.4 51 -10.3 13.5
00:30 1014 29.94 843 24.89 -1.2 29.8 50 -10.4 13.3
00:35 1014 29.94 843 24.89 -1.1 30.1 50 -10.1 13.8
00:40 1014 29.94 843 24.89 -1 30.1 50 -10.1 13.9
00:45 1014 29.94 843 24.89 -1.1 30.1 49 -10.4 13.2
00:50 1014 29.94 843 24.89 -0.9 30.4 51 -9.9 14.2
00:55 1014 29.94 843 24.89 -1.3 29.7 52 -9.9 14.1
01:00 1014 29.94 843 24.89 -1.5 29.3 57 -9 15.8
01:05 1014 29.94 843 24.89 -1.9 28.6 58 -9.1 15.6
01:10 1014 29.94 843 24.89 -2 28.3 60 -8.8 16.2
01:15 1014 29.94 843 24.89 -2.3 27.8 61 -8.8 16.1
01:20 1014 29.94 843 24.89 -2.5 27.5 61 -9.1 15.7
01:25 1014 29.94 843 24.89 -2.4 27.6 57 -9.9 14.2
01:30 1014 29.94 843 24.89 -2 28.3 57 -9.5 14.9
01:35 1014 29.94 843 24.89 -2 28.4 55 -10 14
01:40 1014 29.94 843 24.89 -2 28.5 54 -10.1 13.8
01:45 1014 29.94 843 24.89 -1.7 28.9 51 -10.5 13.1
01:50 1014 29.94 843 24.89 -1.8 28.8 53 -10.1 13.8
01:55 1014 29.94 843 24.89 -1.6 29.1 53 -10 14
02:00 1014 29.94 843 24.89 -1.7 28.9 52 -10.3 13.4
02:05 1014 29.94 843 24.89 -1.7 28.9 53 -10.2 13.7
02:10 1014 29.94 843 24.89 -1.9 28.6 54 -9.9 14.2
02:15 1014 29.94 843 24.89 -1.9 28.6 55 -9.9 14.2
02:20 1014 29.94 843 24.89 -2.1 28.2 56 -9.8 14.4
02:25 1014 29.94 843 24.89 -2.6 27.4 57 -9.9 14.1
02:30 1014 29.94 843 24.89 -2.5 27.6 55 -10.4 13.3
02:35 1014 29.94 843 24.89 -2.2 28 55 -10.2 13.7
02:40 1014 29.94 843 24.89 -2.3 27.9 55 -10.2 13.7
02:45 1014 29.94 843 24.89 -2.4 27.7 56 -10 14
02:50 1014 29.94 843 24.89 -2.6 27.3 57 -10 14
02:55 1014 29.94 843 24.89 -3 26.6 58 -10.1 13.7
03:00 1014 29.94 843 24.89 -3.1 26.5 57 -10.4 13.4
03:05 1014 29.94 843 24.89 -2.7 27.1 53 -10.9 12.4
03:10 1014 29.94 843 24.89 -2 28.3 51 -10.8 12.5
03:15 1014 29.94 843 24.89 -1.8 28.8 50 -10.8 12.6
03:20 1014 29.94 843 24.89 -1.7 28.9 51 -10.6 12.9
03:25 1014 29.94 843 24.89 -1.9 28.5 52 -10.5 13.1
03:30 1014 29.94 843 24.89 -1.9 28.5 52 -10.6 13
03:35 1014 29.94 843 24.89 -2.1 28.2 54 -10.3 13.4
03:40 1014 29.94 843 24.89 -2.6 27.2 55 -10.5 13.1
03:45 1014 29.94 843 24.89 -2.7 27.2 54 -10.7 12.8
03:50 1014 29.94 843 24.89 -2.5 27.5 54 -10.7 12.7
03:55 1014 29.94 843 24.89 -2.6 27.4 54 -10.6 13
04:00 1014 29.94 843 24.89 -2.7 27.2 54 -10.7 12.7
04:05 1014 29.94 843 24.89 -2.7 27.2 53 -10.9 12.4
04:10 1014 29.94 843 24.89 -2.6 27.4 54 -10.8 12.6
04:15 1014 29.94 843 24.89 -2.8 27 55 -10.7 12.7
04:20 1014 29.94 843 24.89 -3 26.6 55 -10.8 12.6
04:25 1014 29.94 843 24.89 -3.2 26.2 55 -10.9 12.4
04:30 1014 29.94 843 24.89 -3.1 26.5 55 -10.9 12.4
04:35 1014 29.94 843 24.89 -2.9 26.7 54 -11 12.2
04:40 1014 29.94 843 24.89 -2.7 27.2 53 -11.1 12.1
04:45 1014 29.94 843 24.89 -2.8 26.9 54 -10.9 12.4
04:50 1014 29.94 843 24.89 -3.1 26.3 56 -10.8 12.6
04:55 1014 29.94 843 24.89 -3.6 25.5 58 -10.7 12.7
05:00 1014 29.94 843 24.89 -3.8 25.1 58 -10.9 12.4
05:05 1014 29.94 843 24.89 -4 24.8 58 -11.1 12
05:10 1014 29.94 843 24.89 -4 24.8 58 -11.2 11.9
05:15 1014 29.94 843 24.89 -3.9 25 57 -11.2 11.9
05:20 1014 29.94 843 24.89 -3.7 25.3 57 -11.1 12.1
05:25 1014 29.94 843 24.89 -3.7 25.4 57 -11.1 12
05:30 1014 29.94 843 24.89 -3.6 25.5 56 -11.1 12
05:35 1014 29.94 843 24.89 -3.6 25.5 56 -11.1 11.9
05:40 1014 29.94 843 24.89 -3.5 25.6 56 -11 12.1
05:45 1014 29.94 843 24.89 -3.9 25 57 -11.3 11.7
05:50 1014 29.94 843 24.89 -4.1 24.7 57 -11.3 11.6
05:55 1014 29.94 843 24.89 -4 24.8 57 -11.4 11.4
06:00 1014 29.94 843 24.89 -3.9 25.1 56 -11.4 11.4
06:05 1014 29.94 843 24.89 -3.7 25.4 56 -11.3 11.7
06:10 1014 29.94 843 24.89 -3.7 25.4 55 -11.4 11.5
06:15 1014 29.94 843 24.89 -3.6 25.6 55 -11.3 11.6
06:20 1014 29.94 843 24.89 -3.7 25.3 56 -11.3 11.6
06:25 1014 29.94 843 24.89 -3.9 25 57 -11.3 11.7
06:30 1014 29.94 843 24.89 -3.9 24.9 56 -11.5 11.3
06:35 1014 29.94 843 24.89 -3.6 25.5 54 -11.6 11.1
06:40 1014 29.94 843 24.89 -3.3 26.1 53 -11.5 11.3
06:45 1014 29.94 843 24.89 -3.1 26.4 53 -11.4 11.5
06:50 1014 29.94 843 24.89 -3.2 26.2 54 -11.3 11.6
06:55 1014 29.94 843 24.89 -3.4 25.9 54 -11.4 11.6
07:00 1014 29.94 843 24.89 -3.6 25.5 55 -11.5 11.3
07:05 1014 29.94 843 24.89 -3.6 25.6 55 -11.5 11.4
07:10 1014 29.94 843 24.89 -3.6 25.5 55 -11.3 11.7
07:15 1014 29.94 843 24.89 -3.9 25.1 56 -11.3 11.6
07:20 1014 29.94 843 24.89 -4.1 24.7 57 -11.3 11.6
07:25 1014 29.94 843 24.89 -3.9 24.9 56 -11.4 11.4
07:30 1014 29.94 843 24.89 -3.8 25.1 57 -11.2 11.8
07:35 1014 29.94 843 24.89 -3.7 25.4 56 -11.2 11.8
07:40 1014 29.94 843 24.89 -3.7 25.3 56 -11.3 11.6
07:45 1014 29.94 843 24.89 -3.8 25.2 57 -11 12.2
07:50 1014 29.94 843 24.89 -4 24.7 59 -10.9 12.3
07:55 1014 29.94 843 24.89 -4.3 24.3 58 -11.3 11.6
08:00 1014 29.94 843 24.89 -4 24.8 57 -11.3 11.6
08:05 1014 29.94 843 24.89 -4.1 24.7 58 -11.1 12.1
08:10 1014 29.94 843 24.89 -4.2 24.4 59 -11.1 12.1
08:15 1014 29.94 843 24.89 -4.3 24.3 58 -11.4 11.6
08:20 1014 29.94 843 24.89 -4 24.7 59 -11 12.2
08:25 1014 29.94 843 24.89 -4.4 24.1 60 -11 12.3
08:30 1014 29.94 843 24.89 -4.5 23.9 60 -11.1 12
08:35 1014 29.94 843 24.89 -4.5 23.8 60 -11.2 11.8
08:40 1014 29.94 843 24.89 -4.5 23.9 60 -11.1 12
08:45 1014 29.94 843 24.89 -4.4 24 59 -11.3 11.7
08:50 1014 29.94 843 24.89 -4.2 24.4 59 -11.2 11.8
08:55 1014 29.94 843 24.89 -4.2 24.5 58 -11.3 11.7
09:00 1014 29.94 843 24.89 -4 24.7 58 -11.1 11.9
09:05 1014 29.94 843 24.89 -4 24.9 58 -11.1 12.1
09:10 1014 29.94 843 24.89 -3.9 25 58 -11.1 12.1
09:15 1014 29.94 844 24.92 -3.8 25.2 57 -11.1 12
09:20 1014 29.94 844 24.92 -3.6 25.4 56 -11.2 11.8
09:25 1014 29.94 844 24.92 -3.4 25.8 56 -11.1 12
09:30 1014 29.94 844 24.92 -3.4 25.9 56 -11.1 12.1
09:35 1014 29.94 844 24.92 -3.4 25.9 55 -11.1 12
09:40 1014 29.94 844 24.92 -3.4 25.9 56 -11 12.3
09:45 1014 29.94 844 24.92 -3.2 26.2 55 -11 12.2
09:50 1014 29.94 844 24.92 -3.2 26.3 56 -10.8 12.6
09:55 1015 29.97 844 24.92 -3.1 26.4 56 -10.6 13
10:00 1015 29.97 844 24.92 -3 26.7 55 -10.8 12.6
10:05 1015 29.97 844 24.92 -3.2 26.3 57 -10.6 12.9
10:10 1015 29.97 844 24.92 -3.1 26.4 54 -11.1 12
10:15 1015 29.97 844 24.92 -2.9 26.9 55 -10.7 12.7
10:20 1015 29.97 844 24.92 -2.8 27 55 -10.7 12.8
10:25 1015 29.97 844 24.92 -2.7 27.2 55 -10.6 13
10:30 1015 29.97 844 24.92 -2.5 27.4 54 -10.7 12.7
10:35 1015 29.97 844 24.92 -2.4 27.7 54 -10.3 13.4
10:40 1015 29.97 844 24.92 -2.2 28.1 56 -9.9 14.2
10:45 1015 29.97 844 24.92 -2 28.3 55 -10 14
10:50 1015 29.97 844 24.92 -1.9 28.6 55 -9.9 14.2
10:55 1015 29.97 844 24.92 -1.8 28.7 54 -9.9 14.1
11:00 1015 29.97 844 24.92 -1.7 29 52 -10.2 13.7
11:05 1015 29.97 844 24.92 -1.4 29.6 52 -10 14.1
11:10 1015 29.97 844 24.92 -1.1 30 51 -10 14
11:15 1015 29.97 844 24.92 -1 30.2 52 -9.7 14.5
11:20 1015 29.97 844 24.92 -0.8 30.6 50 -10 14
11:25 1015 29.97 844 24.92 -0.7 30.7 50 -9.9 14.1
11:30 1015 29.97 844 24.92 -0.6 30.9 50 -9.8 14.4
11:35 1015 29.97 844 24.92 -0.5 31 50 -9.7 14.5
11:40 1015 29.97 844 24.92 -0.4 31.3 50 -9.6 14.8
11:45 1015 29.97 844 24.92 -0.4 31.3 50 -9.5 14.9
11:50 1015 29.97 844 24.92 -0.4 31.3 51 -9.3 15.3
11:55 1015 29.97 844 24.92 -0.3 31.4 51 -9.4 15.1
12:00 1015 29.97 844 24.92 -0.2 31.6 51 -9.2 15.5
12:05 1015 29.97 844 24.92 -0.1 31.8 50 -9.3 15.3
12:10 1015 29.97 844 24.92 -0 32 50 -9.3 15.2
12:15 1015 29.97 844 24.92 0.1 32.3 51 -8.9 16
12:20 1015 29.97 844 24.92 0.1 32.1 52 -8.6 16.4
12:25 1015 29.97 844 24.92 0 32 53 -8.5 16.7
12:30 1015 29.97 844 24.92 -0.1 31.9 52 -8.9 16
12:35 1015 29.97 844 24.92 0.4 32.7 50 -8.8 16.1
12:40 1015 29.97 844 24.92 0.6 33 48 -9.2 15.4
12:45 1015 29.97 844 24.92 0.7 33.3 48 -9 15.8
12:50 1014 29.94 844 24.92 0.5 33 48 -9.2 15.5
12:55 1014 29.94 844 24.92 0.8 33.4 47 -9.2 15.5
13:00 1014 29.94 844 24.92 1 33.7 47 -9.1 15.7
13:05 1014 29.94 844 24.92 0.7 33.3 50 -8.6 16.5
13:10 1014 29.94 843 24.89 0.5 33 49 -9.1 15.7
13:15 1014 29.94 843 24.89 0.6 33.1 49 -8.9 16
13:20 1014 29.94 843 24.89 0.6 33.1 49 -8.8 16.1
13:25 1014 29.94 843 24.89 0.4 32.8 50 -8.9 16
13:30 1014 29.94 843 24.89 0.5 32.9 50 -8.8 16.1
13:35 1014 29.94 843 24.89 0.7 33.3 49 -8.8 16.2
13:40 1014 29.94 843 24.89 0.6 33.1 50 -8.8 16.2
13:45 1014 29.94 843 24.89 1 33.9 48 -8.7 16.3
13:50 1014 29.94 843 24.89 1 33.8 51 -8.1 17.4
13:55 1014 29.94 843 24.89 0.1 32.1 53 -8.4 16.8
14:00 1014 29.94 843 24.89 0.3 32.5 52 -8.5 16.7
14:05 1014 29.94 843 24.89 0.3 32.5 53 -8.2 17.2
14:10 1014 29.94 843 24.89 -0.2 31.6 54 -8.5 16.7
14:15 1014 29.94 843 24.89 0.4 32.8 51 -8.5 16.6
14:20 1014 29.94 843 24.89 1.2 34.1 48 -8.6 16.5
14:25 1014 29.94 843 24.89 2 35.5 46 -8.4 17
14:30 1014 29.94 843 24.89 2.2 35.9 46 -8.3 17.1
14:35 1014 29.94 843 24.89 1.9 35.4 46 -8.4 16.9
14:40 1013 29.91 843 24.89 1.9 35.3 48 -8.2 17.3
14:45 1013 29.91 843 24.89 1.3 34.4 48 -8.4 16.9
14:50 1013 29.91 843 24.89 0.9 33.7 51 -8.2 17.2
14:55 1013 29.91 842 24.86 0.9 33.6 48 -8.9 15.9
15:00 1013 29.91 842 24.86 0.8 33.5 48 -9 15.9
15:05 1013 29.91 842 24.86 0.7 33.3 51 -8.4 17
15:10 1013 29.91 842 24.86 0.8 33.5 51 -8.3 17.1
15:15 1013 29.91 842 24.86 0.9 33.6 50 -8.3 17
15:20 1013 29.91 842 24.86 1.3 34.4 49 -8.3 17
15:25 1013 29.91 842 24.86 1.4 34.6 49 -8.3 17.1
15:30 1013 29.91 842 24.86 1.6 34.9 45 -9 15.8
15:35 1013 29.91 842 24.86 1.6 34.9 47 -8.6 16.5
15:40 1013 29.91 842 24.86 1.6 34.9 49 -8.1 17.5
15:45 1013 29.91 842 24.86 1.7 35 48 -8.3 17.1
15:50 1013 29.91 842 24.86 1.6 34.8 50 -7.8 17.9
15:55 1013 29.91 842 24.86 1.5 34.7 51 -7.6 18.3
16:00 1013 29.91 842 24.86 1.9 35.4 50 -7.4 18.7
16:05 1013 29.91 842 24.86 1.5 34.7 53 -7.1 19.2
16:10 1013 29.91 842 24.86 1.7 35 52 -7.2 19
16:15 1013 29.91 842 24.86 1.5 34.6 54 -6.8 19.7
16:20 1013 29.91 842 24.86 1.6 34.9 52 -7.2 19
16:25 1013 29.91 842 24.86 1.6 34.8 52 -7.2 19.1
16:30 1013 29.91 842 24.86 1.3 34.3 53 -7.4 18.8
16:35 1013 29.91 842 24.86 1.3 34.3 53 -7.2 19
16:40 1013 29.91 842 24.86 1.2 34.1 54 -7 19.3
16:45 1013 29.91 842 24.86 1.3 34.4 54 -7 19.4
16:50 1013 29.91 842 24.86 1.3 34.3 54 -7 19.4
16:55 1013 29.91 842 24.86 1 33.8 55 -7.1 19.3
17:00 1013 29.91 842 24.86 0.9 33.6 56 -7 19.5
17:05 1013 29.91 842 24.86 0.9 33.6 55 -7 19.3
17:10 1013 29.91 842 24.86 0.9 33.7 55 -7.1 19.2
17:15 1013 29.91 842 24.86 0.4 32.8 58 -6.8 19.7
17:20 1013 29.91 842 24.86 0.1 32.1 58 -7.2 19
17:25 1013 29.91 842 24.86 0.1 32.2 59 -6.9 19.5
17:30 1013 29.91 842 24.86 0.3 32.6 58 -6.9 19.6
17:35 1013 29.91 842 24.86 0.3 32.5 59 -6.8 19.8
17:40 1013 29.91 842 24.86 -0 32 60 -7 19.5
17:45 1013 29.91 842 24.86 -0.1 31.8 60 -7 19.3
17:50 1013 29.91 842 24.86 0 32.1 59 -7 19.4
17:55 1013 29.91 842 24.86 0 32.1 60 -6.9 19.6
18:00 1013 29.91 842 24.86 -0.1 31.8 60 -6.9 19.6
18:05 1013 29.91 842 24.86 -0.3 31.5 61 -6.8 19.7
18:10 1013 29.91 842 24.86 -0.2 31.6 61 -6.9 19.6
18:15 1013 29.91 842 24.86 -0.1 31.8 60 -7 19.4
18:20 1013 29.91 842 24.86 -0.2 31.7 61 -6.8 19.8
18:25 1013 29.91 842 24.86 -0.4 31.3 62 -6.7 19.9
18:30 1013 29.91 842 24.86 -0.4 31.2 62 -6.9 19.6
18:35 1013 29.91 842 24.86 -0.5 31.2 61 -7 19.4
18:40 1013 29.91 842 24.86 -0.5 31.1 62 -6.8 19.7
18:45 1013 29.91 842 24.86 -0.6 30.9 62 -6.9 19.6
18:50 1013 29.91 842 24.86 -0.6 31 62 -6.9 19.5
18:55 1013 29.91 842 24.86 -0.6 30.9 64 -6.7 19.9
19:00 1013 29.91 842 24.86 -0.8 30.6 64 -6.8 19.7
19:05 1013 29.91 842 24.86 -1 30.2 64 -6.9 19.6
19:10 1013 29.91 842 24.86 -1.1 29.9 65 -6.9 19.5
19:15 1013 29.91 842 24.86 -1.2 29.8 65 -7.1 19.3
19:20 1013 29.91 842 24.86 -1.3 29.7 65 -7 19.3
19:25 1013 29.91 842 24.86 -1.3 29.6 66 -6.9 19.6
19:30 1013 29.91 842 24.86 -1.3 29.7 66 -6.9 19.5
19:35 1013 29.91 842 24.86 -1.2 29.9 66 -6.7 20
19:40 1013 29.91 842 24.86 -1.3 29.7 66 -6.8 19.8
19:45 1013 29.91 842 24.86 -1.3 29.7 66 -6.8 19.7
19:50 1013 29.91 842 24.86 -1.4 29.6 66 -6.8 19.7
19:55 1013 29.91 842 24.86 -1.4 29.4 67 -6.8 19.8
20:00 1013 29.91 842 24.86 -1.5 29.3 68 -6.7 19.9
20:05 1013 29.91 842 24.86 -1.6 29.2 68 -6.8 19.8
20:10 1013 29.91 842 24.86 -1.6 29.1 68 -6.9 19.6
20:15 1013 29.91 842 24.86 -1.7 29 68 -6.9 19.6
20:20 1013 29.91 842 24.86 -1.7 28.9 68 -6.8 19.7
20:25 1013 29.91 842 24.86 -1.8 28.8 68 -6.9 19.5
20:30 1013 29.91 842 24.86 -1.7 28.9 68 -6.9 19.6
20:35 1013 29.91 842 24.86 -1.7 28.9 68 -6.9 19.5
20:40 1013 29.91 842 24.86 -1.8 28.8 68 -6.9 19.6
20:45 1013 29.91 842 24.86 -1.8 28.7 68 -7 19.3
20:50 1013 29.91 842 24.86 -1.8 28.7 68 -6.9 19.5
20:55 1013 29.91 842 24.86 -1.8 28.8 67 -7.1 19.3
21:00 1013 29.91 842 24.86 -1.8 28.8 67 -7.1 19.1
21:05 1013 29.91 842 24.86 -1.8 28.8 66 -7.2 19
21:10 1013 29.91 842 24.86 -1.7 28.9 66 -7.2 19
21:15 1013 29.91 842 24.86 -1.7 28.9 66 -7.2 19.1
21:20 1013 29.91 842 24.86 -1.8 28.7 66 -7.2 19
21:25 1013 29.91 842 24.86 -1.8 28.8 69 -6.8 19.8
21:30 1013 29.91 842 24.86 -1.9 28.7 67 -7.1 19.2
21:35 1013 29.91 842 24.86 -1.9 28.5 68 -7.1 19.3
21:40 1013 29.91 842 24.86 -2 28.4 67 -7.2 19
21:45 1013 29.91 842 24.86 -2.1 28.2 67 -7.3 18.8
21:50 1013 29.91 842 24.86 -2.1 28.2 67 -7.4 18.7
21:55 1013 29.91 842 24.86 -2.1 28.1 67 -7.4 18.7
22:00 1013 29.91 842 24.86 -2.2 28.1 67 -7.5 18.6
22:05 1013 29.91 842 24.86 -2.1 28.2 68 -7.3 18.8
22:10 1013 29.91 842 24.86 -2.2 28.1 68 -7.3 18.9
22:15 1013 29.91 842 24.86 -2.4 27.7 71 -7 19.4
22:20 1013 29.91 842 24.86 -2.8 27 70 -7.5 18.5
22:25 1013 29.91 842 24.86 -2.7 27.1 71 -7.4 18.8
22:30 1013 29.91 842 24.86 -3 26.5 72 -7.3 18.8
22:35 1013 29.91 842 24.86 -3.4 25.9 73 -7.5 18.5
22:40 1013 29.91 842 24.86 -3.5 25.7 74 -7.5 18.5
22:45 1013 29.91 842 24.86 -3.5 25.7 74 -7.5 18.5
22:50 1013 29.91 842 24.86 -3.6 25.6 75 -7.4 18.6
22:55 1013 29.91 842 24.86 -3.9 25 75 -7.6 18.3
23:00 1013 29.91 842 24.86 -4.1 24.6 76 -7.8 17.9
23:05 1013 29.91 842 24.86 -4.3 24.3 75 -8 17.6
23:10 1013 29.91 842 24.86 -4.6 23.7 76 -8.2 17.3
23:15 1013 29.91 842 24.86 -4.8 23.4 77 -8.2 17.2
23:20 1013 29.91 842 24.86 -4.8 23.4 76 -8.3 17
23:25 1013 29.91 842 24.86 -4.9 23.1 77 -8.4 16.8
23:30 1013 29.91 842 24.86 -5.1 22.9 76 -8.6 16.4
23:35 1013 29.91 842 24.86 -5.1 22.7 76 -8.7 16.3
23:40 1013 29.91 842 24.86 -5.2 22.6 76 -8.8 16.1
23:45 1013 29.91 842 24.86 -5.2 22.6 76 -8.8 16.1
23:50 1013 29.91 842 24.86 -5.2 22.7 76 -8.8 16.2
23:55 1013 29.91 842 24.86 -5.2 22.7 75 -8.9 16.1
24:00 1013 29.91 842 24.86 -5.2 22.6 75 -8.9 16